Terminal Aerodrome Forecast
Issued by NWS

Home | Current Version | Previous Version | Text Only | Print | Product List | Glossary On
Versions: 1 2 3 4 5 6 7 8 9 10 11 12 13 14 15 16 17 18 19 20 21 22 23 24 25 26
000
FTUS43 KGRB 290500
TAFMTW
TAF
KMTW 290520Z 2906/3006 16012G18KT 6SM BR SCT020 OVC040
      WS014/19030KT
      TEMPO 2906/2909 4SM -FZDZ BR SCT009 OVC020
     FM290900 VRB03KT 5SM BR SCT007 OVC020
      TEMPO 2909/2913 2SM -FZDZ BR OVC020
     FM291300 33006KT 2SM -SN BR BKN008 OVC020
     FM291500 32008G15KT 5SM -SN BKN012 OVC035
     FM291700 32019G27KT P6SM -SN BKN025 BKN040
     FM300100 32015G24KT P6SM SCT025=

USA.gov is the U.S. government's official web portal to all federal, state and local government web resources and services.